Riverside, Washington
Current Conditions -  °F | °C
As of 7:53 AM on Wednesday 22 Oct 2014 (Local Time) from KOMK Reporting Station
Light Rain Light Rain  
Wind Chill: 44°   Ceiling: 5000
Heat Index: 47°   Visibility: 10mi
Dew Point: 45°   Wind: 7mph
Humidity: 93%   Direction: 200°SSW
Pressure: 29.82"   Gusts: NA
Location:  48.5°N, 119.51°W
Report Text: KOMK 221453Z AUTO 20006KT 10SM -RA OVC050 08/07 A2982 RMK AO2 SLP101 P0004 60010 T00830072 58005
Loading
Personal Weather Stations






























Interactive Weather Map
Tropical Storm Tracking
New forecast layout! Learn more

10-Day Weather Forecast

Advertisements
Track Severe Weather on mobile